Time;durP1;ratioP1;P1;durP2;ratioP2;P2;SDS_P1;SDS_P2;PMS_P1;PMS_P2;Temp;Humidity;BMP_temperature;BMP_pressure;BME280_temperature;BME280_humidity;BME280_pressure;Samples;Min_cycle;Max_cycle;Signal;HPM_P1;HPM_P2
2024/04/04 00:01:58;;;;;;;40.65;38.60;;;;;;;;;;5061274;28;20442;-56
2024/04/04 00:04:23;;;;;;;40.97;38.88;;;;;;;;;;5060222;28;20028;-55
2024/04/04 00:06:48;;;;;;;41.33;39.22;;;;;;;;;;5062815;28;20072;-56
2024/04/04 00:09:14;;;;;;;39.10;37.10;;;;;;;;;;5063895;28;20083;-56
2024/04/04 00:11:40;;;;;;;40.20;38.15;;;;;;;;;;5058839;28;20064;-54
2024/04/04 00:14:06;;;;;;;41.67;39.53;;;;;;;;;;5045974;28;20036;-56
2024/04/04 00:16:35;;;;;;;40.30;38.20;;;;;;;;;;5060919;28;20024;-56
2024/04/04 00:19:01;;;;;;;38.08;36.10;;;;;;;;;;5059711;28;20025;-54
2024/04/04 00:21:26;;;;;;;40.22;38.17;;;;;;;;;;5061945;28;20383;-55
2024/04/04 00:23:52;;;;;;;45.50;43.20;;;;;;;;;;5058980;28;20039;-55
2024/04/04 00:26:17;;;;;;;41.33;39.20;;;;;;;;;;5061590;28;20040;-55
2024/04/04 00:28:43;;;;;;;40.03;37.97;;;;;;;;;;5057692;28;20059;-55
2024/04/04 00:31:08;;;;;;;39.45;37.42;;;;;;;;;;5060619;28;20078;-54
2024/04/04 00:33:34;;;;;;;41.65;39.53;;;;;;;;;;5045946;28;20089;-54
2024/04/04 00:36:00;;;;;;;40.75;38.65;;;;;;;;;;5060208;28;20035;-55
2024/04/04 00:38:27;;;;;;;39.35;37.35;;;;;;;;;;5059921;28;20107;-56
2024/04/04 00:40:52;;;;;;;39.78;37.75;;;;;;;;;;5059868;28;20416;-56
2024/04/04 00:43:17;;;;;;;38.63;36.67;;;;;;;;;;5062240;28;20044;-55
2024/04/04 00:45:43;;;;;;;39.33;37.33;;;;;;;;;;5059865;28;20108;-56
2024/04/04 00:48:09;;;;;;;37.85;35.88;;;;;;;;;;5060606;28;20040;-56
2024/04/04 00:50:35;;;;;;;40.30;38.20;;;;;;;;;;5058904;28;20043;-56
2024/04/04 00:53:01;;;;;;;40.15;38.10;;;;;;;;;;5060383;28;20116;-56
2024/04/04 00:55:27;;;;;;;38.03;36.03;;;;;;;;;;5060026;28;20118;-55
2024/04/04 00:57:53;;;;;;;38.72;36.72;;;;;;;;;;5043516;28;20040;-53
2024/04/04 01:00:18;;;;;;;37.47;35.47;;;;;;;;;;5061816;28;20120;-55
2024/04/04 01:02:44;;;;;;;37.42;35.53;;;;;;;;;;5060440;28;20119;-55
2024/04/04 01:05:12;;;;;;;36.47;34.58;;;;;;;;;;5062922;28;20032;-55
2024/04/04 01:07:38;;;;;;;37.13;35.22;;;;;;;;;;5057810;28;20554;-56
2024/04/04 01:10:08;;;;;;;39.28;37.28;;;;;;;;;;5062152;28;20028;-55
2024/04/04 01:12:34;;;;;;;38.03;36.03;;;;;;;;;;5057941;28;20037;-56
2024/04/04 01:15:00;;;;;;;36.53;34.65;;;;;;;;;;5058611;28;20043;-55
2024/04/04 01:17:25;;;;;;;36.13;34.22;;;;;;;;;;5056529;28;20032;-56
2024/04/04 01:19:54;;;;;;;35.67;33.47;;;;;;;;;;5061770;28;20071;-55
2024/04/04 01:22:20;;;;;;;36.33;34.42;;;;;;;;;;5057952;28;20041;-55
2024/04/04 01:24:45;;;;;;;36.88;34.97;;;;;;;;;;5059157;28;20048;-53
2024/04/04 01:27:10;;;;;;;37.38;35.47;;;;;;;;;;5046250;28;20037;-56
2024/04/04 01:29:36;;;;;;;38.38;36.42;;;;;;;;;;5059651;28;20028;-55
2024/04/04 01:32:01;;;;;;;38.63;36.63;;;;;;;;;;5058996;28;20124;-54
2024/04/04 01:34:26;;;;;;;40.15;38.05;;;;;;;;;;5058564;28;20071;-51
2024/04/04 01:36:53;;;;;;;37.33;35.42;;;;;;;;;;5059440;28;20421;-54
2024/04/04 01:39:18;;;;;;;38.28;36.28;;;;;;;;;;5061283;28;20115;-54
2024/04/04 01:41:45;;;;;;;34.90;33.10;;;;;;;;;;5060249;28;20103;-51
2024/04/04 01:44:11;;;;;;;38.17;36.20;;;;;;;;;;5057123;28;20037;-53
2024/04/04 01:46:37;;;;;;;34.15;32.38;;;;;;;;;;5055834;28;20029;-54
2024/04/04 01:49:02;;;;;;;38.25;36.30;;;;;;;;;;5056011;28;20036;-53
2024/04/04 01:51:27;;;;;;;36.15;34.30;;;;;;;;;;5057924;28;20123;-52
2024/04/04 01:53:52;;;;;;;37.30;35.40;;;;;;;;;;5058427;28;20028;-56
2024/04/04 01:56:18;;;;;;;39.45;37.35;;;;;;;;;;5059887;28;20032;-54
2024/04/04 01:58:43;;;;;;;37.55;35.65;;;;;;;;;;5057314;28;20352;-55
2024/04/04 02:01:08;;;;;;;39.63;37.63;;;;;;;;;;5059780;28;20039;-56
2024/04/04 02:03:34;;;;;;;39.08;37.08;;;;;;;;;;5057183;28;20029;-54
2024/04/04 02:05:59;;;;;;;39.60;37.58;;;;;;;;;;5059396;28;20068;-54
2024/04/04 02:08:24;;;;;;;42.42;40.17;;;;;;;;;;5045165;28;20046;-54
2024/04/04 02:10:49;;;;;;;38.08;36.15;;;;;;;;;;5061075;28;20067;-56
2024/04/04 02:13:15;;;;;;;41.08;38.97;;;;;;;;;;5060810;28;20595;-54
2024/04/04 02:15:41;;;;;;;36.63;34.75;;;;;;;;;;5058724;28;20037;-55
2024/04/04 02:18:07;;;;;;;43.88;41.65;;;;;;;;;;5059609;28;20112;-54
2024/04/04 02:20:33;;;;;;;38.03;36.10;;;;;;;;;;5056204;28;20112;-53
2024/04/04 02:22:59;;;;;;;39.35;37.22;;;;;;;;;;5060362;28;20069;-54
2024/04/04 02:25:24;;;;;;;39.53;37.45;;;;;;;;;;5044340;28;20033;-55
2024/04/04 02:27:50;;;;;;;40.00;37.95;;;;;;;;;;5059665;28;20029;-54
2024/04/04 02:30:15;;;;;;;38.38;36.40;;;;;;;;;;5062288;28;20102;-54
2024/04/04 02:32:41;;;;;;;43.10;40.50;;;;;;;;;;5043268;28;20588;-55
2024/04/04 02:35:07;;;;;;;47.83;45.38;;;;;;;;;;5059359;28;20642;-54
2024/04/04 02:37:32;;;;;;;46.22;43.90;;;;;;;;;;5059470;28;20112;-55
2024/04/04 02:39:58;;;;;;;50.22;47.65;;;;;;;;;;5057842;28;20360;-55
2024/04/04 02:42:23;;;;;;;49.55;47.05;;;;;;;;;;5056591;28;20795;-55
2024/04/04 02:44:49;;;;;;;49.97;47.42;;;;;;;;;;5040007;28;20033;-54
2024/04/04 02:47:14;;;;;;;52.60;49.95;;;;;;;;;;5058370;28;20032;-54
2024/04/04 02:49:40;;;;;;;58.80;55.85;;;;;;;;;;5045526;28;20142;-52
2024/04/04 02:52:05;;;;;;;57.45;54.50;;;;;;;;;;5054615;28;20102;-55
2024/04/04 02:54:31;;;;;;;64.07;60.88;;;;;;;;;;5058826;28;20036;-56
2024/04/04 02:56:56;;;;;;;60.38;57.30;;;;;;;;;;5056986;28;20029;-55
2024/04/04 02:59:21;;;;;;;59.08;55.75;;;;;;;;;;5039970;28;20040;-55
2024/04/04 03:01:47;;;;;;;70.78;67.00;;;;;;;;;;5053182;28;20033;-56
2024/04/04 03:04:12;;;;;;;64.28;61.03;;;;;;;;;;5060314;28;20039;-56
2024/04/04 03:06:37;;;;;;;67.47;64.07;;;;;;;;;;5041302;28;20056;-55
2024/04/04 03:09:03;;;;;;;58.25;55.15;;;;;;;;;;5040654;28;20033;-54
2024/04/04 03:11:30;;;;;;;65.18;61.88;;;;;;;;;;5057814;28;20108;-53
2024/04/04 03:13:55;;;;;;;59.58;56.55;;;;;;;;;;5057346;28;20055;-54
2024/04/04 03:16:20;;;;;;;58.03;55.08;;;;;;;;;;5057356;28;20036;-56
2024/04/04 03:18:45;;;;;;;59.60;56.53;;;;;;;;;;5057884;28;20046;-56
2024/04/04 03:21:11;;;;;;;50.42;47.88;;;;;;;;;;5055908;28;20032;-54
2024/04/04 03:23:36;;;;;;;52.95;50.28;;;;;;;;;;5060816;28;20032;-55
2024/04/04 03:26:02;;;;;;;53.13;50.10;;;;;;;;;;5062715;28;20037;-53
2024/04/04 03:28:27;;;;;;;53.72;51.00;;;;;;;;;;5060877;28;20503;-56
2024/04/04 03:30:53;;;;;;;56.67;53.80;;;;;;;;;;5041952;28;20056;-56
2024/04/04 03:33:18;;;;;;;64.93;61.63;;;;;;;;;;5062005;28;20071;-55
2024/04/04 03:35:43;;;;;;;55.63;52.78;;;;;;;;;;5060859;28;20123;-55
2024/04/04 03:38:09;;;;;;;62.83;59.63;;;;;;;;;;5063319;28;20041;-55
2024/04/04 03:40:36;;;;;;;61.80;58.65;;;;;;;;;;5061131;28;20039;-55
2024/04/04 03:43:02;;;;;;;59.20;56.20;;;;;;;;;;5063739;28;20036;-55
2024/04/04 03:45:28;;;;;;;54.22;51.38;;;;;;;;;;5064283;28;20040;-54
2024/04/04 03:47:54;;;;;;;53.00;50.30;;;;;;;;;;5060625;28;20036;-54
2024/04/04 03:50:19;;;;;;;53.58;50.88;;;;;;;;;;5048202;28;20046;-52
2024/04/04 03:52:44;;;;;;;54.25;51.50;;;;;;;;;;5062233;28;20036;-55
2024/04/04 03:55:10;;;;;;;56.97;54.08;;;;;;;;;;5060501;28;20028;-55
2024/04/04 03:57:35;;;;;;;58.67;55.72;;;;;;;;;;5060832;28;20024;-54
2024/04/04 04:00:02;;;;;;;65.20;61.90;;;;;;;;;;5060815;28;20891;-52
2024/04/04 04:02:28;;;;;;;59.15;56.15;;;;;;;;;;5058798;28;20047;-52
2024/04/04 04:04:54;;;;;;;64.35;61.08;;;;;;;;;;5059515;28;20036;-55
2024/04/04 04:07:19;;;;;;;56.90;54.00;;;;;;;;;;5059756;28;20032;-56
2024/04/04 04:09:44;;;;;;;59.63;56.63;;;;;;;;;;5060441;28;20033;-56
2024/04/04 04:12:10;;;;;;;57.53;54.63;;;;;;;;;;5058633;28;20466;-54
2024/04/04 04:14:35;;;;;;;57.92;55.00;;;;;;;;;;5043083;28;20029;-51
2024/04/04 04:17:01;;;;;;;60.47;57.33;;;;;;;;;;5058855;28;20759;-56
2024/04/04 04:19:26;;;;;;;48.67;46.17;;;;;;;;;;5046910;28;20029;-55
2024/04/04 04:21:51;;;;;;;53.00;50.33;;;;;;;;;;5059189;28;20034;-54
2024/04/04 04:24:17;;;;;;;50.63;48.08;;;;;;;;;;5060218;28;20032;-55
2024/04/04 04:26:42;;;;;;;52.58;49.88;;;;;;;;;;5058327;28;20059;-55
2024/04/04 04:29:11;;;;;;;50.85;48.25;;;;;;;;;;5058939;28;20020;-54
2024/04/04 04:31:36;;;;;;;51.83;49.13;;;;;;;;;;5060805;28;20304;-55
2024/04/04 04:34:03;;;;;;;54.05;51.25;;;;;;;;;;5058168;28;20156;-55
2024/04/04 04:36:36;;;;;;;53.17;50.47;;;;;;;;;;5058593;28;20587;-55
2024/04/04 04:39:02;;;;;;;52.97;50.30;;;;;;;;;;5060342;28;20502;-55
2024/04/04 04:41:28;;;;;;;53.47;50.78;;;;;;;;;;5059159;28;20039;-53
2024/04/04 04:43:54;;;;;;;53.40;50.70;;;;;;;;;;5060257;28;20060;-53
2024/04/04 04:46:19;;;;;;;54.38;51.58;;;;;;;;;;5060827;28;20040;-55
2024/04/04 04:48:45;;;;;;;51.17;48.38;;;;;;;;;;5057860;28;20163;-55
2024/04/04 04:51:11;;;;;;;55.22;52.42;;;;;;;;;;5060199;28;20036;-53
2024/04/04 04:53:37;;;;;;;60.13;57.10;;;;;;;;;;5061263;28;20101;-55
2024/04/04 04:56:03;;;;;;;51.42;48.80;;;;;;;;;;5061384;28;20028;-53
2024/04/04 04:58:30;;;;;;;54.42;51.65;;;;;;;;;;5058915;28;20409;-55
2024/04/04 05:00:56;;;;;;;54.60;51.83;;;;;;;;;;5058768;28;20082;-53
2024/04/04 05:03:23;;;;;;;54.80;51.95;;;;;;;;;;5061218;28;20036;-56
2024/04/04 05:05:50;;;;;;;54.45;51.67;;;;;;;;;;5062316;28;20047;-55
2024/04/04 05:08:16;;;;;;;59.53;56.53;;;;;;;;;;5059463;28;20036;-54
2024/04/04 05:10:42;;;;;;;53.08;50.38;;;;;;;;;;5059560;28;20378;-52
2024/04/04 05:13:07;;;;;;;59.30;56.30;;;;;;;;;;5059428;28;20058;-56
2024/04/04 05:15:43;;;;;;;52.88;50.15;;;;;;;;;;5058751;28;20037;-54
2024/04/04 05:18:08;;;;;;;55.63;52.80;;;;;;;;;;5058913;28;20029;-54
2024/04/04 05:20:33;;;;;;;55.88;53.00;;;;;;;;;;5062415;28;20044;-55
2024/04/04 05:22:59;;;;;;;51.33;48.75;;;;;;;;;;5060574;28;20047;-56
2024/04/04 05:25:24;;;;;;;56.75;53.65;;;;;;;;;;5059629;28;20036;-54
2024/04/04 05:27:49;;;;;;;53.13;50.40;;;;;;;;;;5060696;28;20378;-55
2024/04/04 05:30:15;;;;;;;55.50;52.50;;;;;;;;;;5061375;28;20553;-55
2024/04/04 05:32:41;;;;;;;55.60;52.78;;;;;;;;;;5057235;28;21186;-53
2024/04/04 05:35:06;;;;;;;51.78;48.63;;;;;;;;;;5059812;28;20047;-56
2024/04/04 05:37:32;;;;;;;56.85;53.97;;;;;;;;;;5046249;28;20040;-52
2024/04/04 05:39:57;;;;;;;48.67;46.17;;;;;;;;;;5059608;28;20047;-54
2024/04/04 05:42:24;;;;;;;56.15;53.17;;;;;;;;;;5058977;28;20516;-54
2024/04/04 05:44:49;;;;;;;52.83;50.13;;;;;;;;;;5058422;28;20036;-55
2024/04/04 05:47:14;;;;;;;57.15;54.25;;;;;;;;;;5059815;28;20074;-54
2024/04/04 05:49:40;;;;;;;54.28;51.53;;;;;;;;;;5045620;28;20032;-54
2024/04/04 05:52:05;;;;;;;52.85;50.13;;;;;;;;;;5061808;28;20535;-53
2024/04/04 05:54:31;;;;;;;55.80;52.88;;;;;;;;;;5044446;28;20143;-56
2024/04/04 05:56:56;;;;;;;53.95;51.20;;;;;;;;;;5056926;28;20024;-55
2024/04/04 05:59:21;;;;;;;52.85;50.15;;;;;;;;;;5058766;28;20039;-55
2024/04/04 06:01:47;;;;;;;53.55;50.83;;;;;;;;;;5058792;28;20410;-55
2024/04/04 06:04:12;;;;;;;50.58;47.95;;;;;;;;;;5057930;28;20044;-53
2024/04/04 06:06:38;;;;;;;53.92;51.17;;;;;;;;;;5057816;28;20024;-52
2024/04/04 06:09:03;;;;;;;52.83;50.15;;;;;;;;;;5045939;28;20078;-51
2024/04/04 06:11:29;;;;;;;52.80;50.15;;;;;;;;;;5061545;28;20028;-54
2024/04/04 06:13:54;;;;;;;56.85;53.97;;;;;;;;;;5042248;28;20025;-53
2024/04/04 06:16:19;;;;;;;53.15;50.20;;;;;;;;;;5058765;28;21795;-54
2024/04/04 06:18:45;;;;;;;46.55;44.17;;;;;;;;;;5060476;28;20101;-55
2024/04/04 06:21:10;;;;;;;48.63;46.15;;;;;;;;;;5045242;28;20617;-52
2024/04/04 06:23:35;;;;;;;46.63;44.22;;;;;;;;;;5059907;28;20052;-54
2024/04/04 06:26:01;;;;;;;44.67;42.17;;;;;;;;;;5057590;28;20374;-53
2024/04/04 06:28:26;;;;;;;45.42;43.03;;;;;;;;;;5060470;28;20441;-55
2024/04/04 06:30:51;;;;;;;38.30;35.97;;;;;;;;;;5058618;28;20056;-54
2024/04/04 06:33:17;;;;;;;38.65;36.65;;;;;;;;;;5059086;28;20141;-53
2024/04/04 06:35:42;;;;;;;37.00;35.00;;;;;;;;;;5041598;28;20492;-55
2024/04/04 06:38:07;;;;;;;34.50;32.70;;;;;;;;;;5060493;28;20051;-54
2024/04/04 06:40:38;;;;;;;35.17;33.33;;;;;;;;;;5058714;28;20041;-53
2024/04/04 06:43:03;;;;;;;32.33;30.58;;;;;;;;;;5058638;28;20478;-55
2024/04/04 06:45:29;;;;;;;32.92;31.20;;;;;;;;;;5059986;28;20083;-53
2024/04/04 06:47:58;;;;;;;34.42;32.65;;;;;;;;;;5059376;28;20036;-54
2024/04/04 06:50:27;;;;;;;34.90;33.08;;;;;;;;;;5059513;28;20033;-53
2024/04/04 06:52:53;;;;;;;35.03;33.25;;;;;;;;;;5059840;28;20036;-56
2024/04/04 06:55:19;;;;;;;38.92;36.90;;;;;;;;;;5061075;28;20706;-53
2024/04/04 06:57:44;;;;;;;39.78;37.67;;;;;;;;;;5063011;28;20028;-53
2024/04/04 07:00:11;;;;;;;39.72;37.70;;;;;;;;;;5061103;28;20036;-54
2024/04/04 07:02:40;;;;;;;41.97;39.80;;;;;;;;;;5046132;28;20092;-53
2024/04/04 07:05:06;;;;;;;44.20;41.95;;;;;;;;;;5064557;28;20050;-54
2024/04/04 07:07:32;;;;;;;45.30;42.97;;;;;;;;;;5064273;28;20037;-56
2024/04/04 07:09:58;;;;;;;49.78;47.22;;;;;;;;;;5064879;28;20047;-55
2024/04/04 07:12:23;;;;;;;52.72;49.97;;;;;;;;;;5061444;28;20055;-54
2024/04/04 07:14:48;;;;;;;56.22;53.40;;;;;;;;;;5060462;28;20033;-55
2024/04/04 07:17:14;;;;;;;72.18;68.60;;;;;;;;;;5063225;28;20043;-55
2024/04/04 07:19:39;;;;;;;80.70;74.63;;;;;;;;;;5062679;28;20466;-56
2024/04/04 07:22:04;;;;;;;72.65;68.97;;;;;;;;;;5064933;28;20565;-53
2024/04/04 07:24:29;;;;;;;92.20;87.53;;;;;;;;;;5061408;28;20036;-56
2024/04/04 07:26:55;;;;;;;88.25;83.80;;;;;;;;;;5063267;28;20048;-56
2024/04/04 07:29:20;;;;;;;70.80;67.25;;;;;;;;;;5061798;28;20032;-56
2024/04/04 07:31:46;;;;;;;68.85;65.38;;;;;;;;;;5060902;28;20039;-56
2024/04/04 07:34:11;;;;;;;77.55;73.70;;;;;;;;;;5062122;28;20040;-55
2024/04/04 07:36:37;;;;;;;71.97;68.38;;;;;;;;;;5064422;28;20669;-56
2024/04/04 07:39:04;;;;;;;60.15;57.13;;;;;;;;;;5060811;28;20402;-56
2024/04/04 07:41:30;;;;;;;53.70;50.97;;;;;;;;;;5046911;28;20041;-54
2024/04/04 07:43:55;;;;;;;71.53;66.38;;;;;;;;;;5044180;28;20044;-56
2024/04/04 07:46:21;;;;;;;53.88;50.92;;;;;;;;;;5062355;28;20119;-55
2024/04/04 07:48:47;;;;;;;50.42;47.90;;;;;;;;;;5061114;28;20077;-57
2024/04/04 07:51:17;;;;;;;51.22;48.65;;;;;;;;;;5062252;28;20036;-57
2024/04/04 07:53:43;;;;;;;57.07;54.20;;;;;;;;;;5062970;28;20037;-57
2024/04/04 07:56:11;;;;;;;47.80;45.30;;;;;;;;;;5061107;28;20521;-57
2024/04/04 07:58:36;;;;;;;52.03;49.40;;;;;;;;;;5063023;28;20484;-57
2024/04/04 08:01:02;;;;;;;44.30;41.97;;;;;;;;;;5044946;28;20028;-56
2024/04/04 08:03:28;;;;;;;52.13;49.35;;;;;;;;;;5063474;28;20542;-57
2024/04/04 08:05:56;;;;;;;53.40;50.33;;;;;;;;;;5048101;28;20115;-56
2024/04/04 08:08:23;;;;;;;49.53;46.65;;;;;;;;;;5062656;28;20033;-57
2024/04/04 08:10:49;;;;;;;50.63;48.08;;;;;;;;;;5060476;28;20129;-57
2024/04/04 08:13:14;;;;;;;53.67;50.95;;;;;;;;;;5062546;28;20101;-55
2024/04/04 08:15:39;;;;;;;52.50;49.83;;;;;;;;;;5061670;28;20055;-57
2024/04/04 08:18:05;;;;;;;54.35;51.08;;;;;;;;;;5062321;28;20410;-56
2024/04/04 08:20:30;;;;;;;50.38;47.83;;;;;;;;;;5060878;28;20528;-56
2024/04/04 08:22:56;;;;;;;49.28;46.67;;;;;;;;;;5061601;28;20173;-54
2024/04/04 08:25:21;;;;;;;64.82;61.42;;;;;;;;;;5060342;28;20078;-57
2024/04/04 08:27:47;;;;;;;50.78;48.20;;;;;;;;;;5061414;28;20048;-54
2024/04/04 08:30:13;;;;;;;49.20;46.67;;;;;;;;;;5062767;28;20093;-55
2024/04/04 08:32:38;;;;;;;51.65;49.03;;;;;;;;;;5060164;28;20047;-55
2024/04/04 08:35:06;;;;;;;55.53;52.72;;;;;;;;;;5061824;28;20646;-56
2024/04/04 08:37:33;;;;;;;54.30;51.55;;;;;;;;;;5060235;28;20032;-58
2024/04/04 08:39:58;;;;;;;62.42;59.15;;;;;;;;;;5060970;28;20028;-57
2024/04/04 08:42:26;;;;;;;55.63;52.58;;;;;;;;;;5061609;28;20032;-58
2024/04/04 08:44:52;;;;;;;51.67;49.08;;;;;;;;;;5045476;28;20040;-58
2024/04/04 08:47:20;;;;;;;58.88;55.92;;;;;;;;;;5059966;28;20052;-57
2024/04/04 08:49:47;;;;;;;53.88;51.13;;;;;;;;;;5060522;28;20466;-58
2024/04/04 08:52:14;;;;;;;57.60;54.70;;;;;;;;;;5061063;28;20040;-57
2024/04/04 08:54:40;;;;;;;48.78;46.28;;;;;;;;;;5058831;28;20045;-58
2024/04/04 08:57:10;;;;;;;49.08;46.58;;;;;;;;;;5061827;28;20451;-56
2024/04/04 08:59:35;;;;;;;42.78;40.63;;;;;;;;;;5059806;28;20024;-56
2024/04/04 09:02:01;;;;;;;43.65;41.42;;;;;;;;;;5059552;28;20043;-57
2024/04/04 09:04:28;;;;;;;48.35;45.90;;;;;;;;;;5058893;28;20036;-57
2024/04/04 09:06:54;;;;;;;63.88;60.58;;;;;;;;;;5061142;28;20040;-57
2024/04/04 09:09:20;;;;;;;58.30;55.35;;;;;;;;;;5057828;28;20055;-55
2024/04/04 09:11:46;;;;;;;60.95;57.92;;;;;;;;;;5060957;28;20466;-57
2024/04/04 09:14:12;;;;;;;57.25;54.38;;;;;;;;;;5060085;28;20040;-57
2024/04/04 09:16:47;;;;;;;52.70;50.03;;;;;;;;;;5060556;28;20040;-57
2024/04/04 09:19:19;;;;;;;50.83;48.20;;;;;;;;;;5057338;28;20032;-57
2024/04/04 09:21:45;;;;;;;51.85;49.25;;;;;;;;;;5061462;28;20485;-57
2024/04/04 09:24:13;;;;;;;49.78;47.17;;;;;;;;;;5057624;28;20068;-57
2024/04/04 09:26:40;;;;;;;49.78;47.20;;;;;;;;;;5060793;28;20028;-57
2024/04/04 09:29:06;;;;;;;45.90;43.58;;;;;;;;;;5060406;28;20028;-56
2024/04/04 09:31:36;;;;;;;49.92;47.22;;;;;;;;;;5058640;28;20382;-57
2024/04/04 09:34:03;;;;;;;53.17;50.47;;;;;;;;;;5061415;28;20109;-57
2024/04/04 09:36:30;;;;;;;50.47;47.75;;;;;;;;;;5061172;28;20123;-57
2024/04/04 09:38:59;;;;;;;44.85;42.47;;;;;;;;;;5060057;28;20040;-57
2024/04/04 09:41:32;;;;;;;49.45;46.95;;;;;;;;;;5059575;27;21570;-58
2024/04/04 09:43:58;;;;;;;52.40;49.75;;;;;;;;;;5049798;28;20037;-59
2024/04/04 09:46:26;;;;;;;49.22;46.67;;;;;;;;;;5047773;28;20036;-58
2024/04/04 09:48:53;;;;;;;51.10;48.53;;;;;;;;;;5049799;28;20135;-57
2024/04/04 09:51:19;;;;;;;52.55;49.90;;;;;;;;;;5047308;28;20021;-58
2024/04/04 09:53:46;;;;;;;47.38;44.97;;;;;;;;;;5049678;28;20035;-57
2024/04/04 09:56:12;;;;;;;56.10;53.30;;;;;;;;;;5048944;28;20091;-58
2024/04/04 09:58:41;;;;;;;60.80;57.75;;;;;;;;;;5049688;28;20040;-58
2024/04/04 10:01:18;;;;;;;66.20;62.90;;;;;;;;;;5049101;28;20048;-58
2024/04/04 10:03:57;;;;;;;57.92;55.03;;;;;;;;;;5051940;28;20064;-59
2024/04/04 10:06:35;;;;;;;49.95;47.45;;;;;;;;;;5048913;28;20048;-56
2024/04/04 10:09:14;;;;;;;53.22;50.53;;;;;;;;;;5050303;28;20033;-56
2024/04/04 10:11:40;;;;;;;57.45;54.55;;;;;;;;;;5048097;28;20047;-54
2024/04/04 10:14:12;;;;;;;46.22;43.83;;;;;;;;;;5050391;28;20037;-56
2024/04/04 10:16:38;;;;;;;53.88;51.15;;;;;;;;;;5049059;28;20040;-56
2024/04/04 10:19:15;;;;;;;56.67;53.85;;;;;;;;;;5048570;28;20490;-55
2024/04/04 10:21:41;;;;;;;54.85;52.10;;;;;;;;;;5047105;28;20056;-52
2024/04/04 10:24:09;;;;;;;54.60;50.85;;;;;;;;;;5048324;28;20040;-56
2024/04/04 10:26:35;;;;;;;55.17;52.40;;;;;;;;;;5046191;28;20061;-52
2024/04/04 10:29:03;;;;;;;60.17;56.97;;;;;;;;;;5049209;28;20029;-54
2024/04/04 10:31:29;;;;;;;60.92;57.85;;;;;;;;;;5045685;28;20038;-54
2024/04/04 10:34:02;;;;;;;65.15;61.90;;;;;;;;;;5049061;28;20037;-55
2024/04/04 10:36:41;;;;;;;61.00;57.90;;;;;;;;;;5048421;28;20097;-55
2024/04/04 10:39:09;;;;;;;71.07;67.57;;;;;;;;;;5045190;28;20057;-50
2024/04/04 10:41:37;;;;;;;70.20;66.70;;;;;;;;;;5049188;28;20066;-54
2024/04/04 10:44:11;;;;;;;69.80;66.28;;;;;;;;;;5049535;28;20117;-51
2024/04/04 10:46:42;;;;;;;75.05;71.35;;;;;;;;;;5047933;28;20409;-52
2024/04/04 10:49:07;;;;;;;76.07;71.90;;;;;;;;;;5049303;28;20398;-55
2024/04/04 10:51:34;;;;;;;71.82;68.22;;;;;;;;;;5043042;28;20033;-52
2024/04/04 10:54:00;;;;;;;66.68;63.33;;;;;;;;;;5035806;28;20033;-54
2024/04/04 10:56:25;;;;;;;63.55;60.38;;;;;;;;;;5035425;28;20044;-53
2024/04/04 10:58:51;;;;;;;72.72;69.13;;;;;;;;;;5033058;28;20613;-54
2024/04/04 11:01:16;;;;;;;67.15;63.80;;;;;;;;;;5035500;28;20118;-55
2024/04/04 11:03:42;;;;;;;68.57;65.18;;;;;;;;;;5037613;28;20036;-54
2024/04/04 11:06:07;;;;;;;75.72;71.95;;;;;;;;;;5035772;28;20091;-53
2024/04/04 11:08:32;;;;;;;81.18;77.07;;;;;;;;;;5037578;28;20109;-56
2024/04/04 11:10:59;;;;;;;72.43;68.72;;;;;;;;;;5033965;28;20479;-55
2024/04/04 11:13:25;;;;;;;73.78;70.07;;;;;;;;;;5035936;28;20135;-52
2024/04/04 11:15:50;;;;;;;80.97;76.97;;;;;;;;;;5032876;28;20067;-55
2024/04/04 11:18:15;;;;;;;72.38;68.78;;;;;;;;;;5033721;28;20052;-51
2024/04/04 11:20:41;;;;;;;78.82;74.90;;;;;;;;;;5034459;28;20108;-52
2024/04/04 11:23:06;;;;;;;79.65;75.65;;;;;;;;;;5035685;28;20128;-54
2024/04/04 11:25:32;;;;;;;81.00;76.95;;;;;;;;;;5033713;28;20112;-54
2024/04/04 11:27:57;;;;;;;92.30;87.72;;;;;;;;;;5035744;28;20108;-53
2024/04/04 11:30:22;;;;;;;96.05;91.25;;;;;;;;;;5037411;28;20152;-54
2024/04/04 11:32:48;;;;;;;94.53;89.85;;;;;;;;;;5032988;28;20486;-53
2024/04/04 11:35:13;;;;;;;91.63;87.10;;;;;;;;;;5035414;28;20057;-57
2024/04/04 11:37:38;;;;;;;98.43;93.57;;;;;;;;;;5036180;28;20206;-55
2024/04/04 11:40:04;;;;;;;91.53;87.03;;;;;;;;;;5032907;28;20092;-54
2024/04/04 11:42:29;;;;;;;83.97;79.85;;;;;;;;;;5035151;28;20087;-57
2024/04/04 11:44:55;;;;;;;93.25;88.65;;;;;;;;;;5034306;28;20033;-55
2024/04/04 11:47:20;;;;;;;84.38;80.20;;;;;;;;;;5034961;28;20048;-56
2024/04/04 11:49:45;;;;;;;89.82;85.35;;;;;;;;;;5031938;28;20037;-57
2024/04/04 11:52:11;;;;;;;87.15;82.82;;;;;;;;;;5034125;28;20509;-56
2024/04/04 11:54:36;;;;;;;78.47;74.57;;;;;;;;;;5033397;28;20075;-57
2024/04/04 11:57:01;;;;;;;77.28;73.43;;;;;;;;;;5032383;28;20029;-57
2024/04/04 11:59:27;;;;;;;77.65;73.78;;;;;;;;;;5031487;28;20039;-57
2024/04/04 12:01:54;;;;;;;67.47;64.10;;;;;;;;;;5031440;28;20063;-57
2024/04/04 12:04:21;;;;;;;71.68;67.95;;;;;;;;;;5031554;28;20038;-57
2024/04/04 12:06:46;;;;;;;59.45;56.42;;;;;;;;;;5033100;28;20029;-57
2024/04/04 12:09:13;;;;;;;60.25;57.25;;;;;;;;;;5035235;28;20382;-57
2024/04/04 12:11:40;;;;;;;63.25;60.05;;;;;;;;;;5034305;28;20029;-57
2024/04/04 12:14:07;;;;;;;61.72;58.60;;;;;;;;;;5033237;28;20041;-57
2024/04/04 12:16:32;;;;;;;59.78;56.78;;;;;;;;;;5032314;28;20426;-57
2024/04/04 12:21:45;;;;;;;55.45;52.65;;;;;;;;;;5034163;28;20041;-56
2024/04/04 12:24:12;;;;;;;52.25;49.63;;;;;;;;;;5032748;28;20148;-57
2024/04/04 12:26:38;;;;;;;51.80;49.20;;;;;;;;;;5066567;28;20125;-54
2024/04/04 12:29:04;;;;;;;50.65;48.10;;;;;;;;;;5030044;28;20128;-55
2024/04/04 12:31:29;;;;;;;52.55;49.90;;;;;;;;;;5033862;28;20179;-57
2024/04/04 12:33:55;;;;;;;49.63;47.13;;;;;;;;;;5031514;28;20048;-57
2024/04/04 12:36:20;;;;;;;49.63;47.13;;;;;;;;;;5033846;28;20511;-57
2024/04/04 12:38:45;;;;;;;52.50;49.85;;;;;;;;;;5030988;28;20612;-54
2024/04/04 12:41:11;;;;;;;54.42;51.65;;;;;;;;;;5032533;28;20483;-58
2024/04/04 12:43:36;;;;;;;49.40;46.90;;;;;;;;;;5035714;28;20048;-57
2024/04/04 12:46:03;;;;;;;48.72;46.28;;;;;;;;;;5035071;28;20025;-56
2024/04/04 12:48:32;;;;;;;42.38;40.17;;;;;;;;;;5032907;28;20052;-57
2024/04/04 12:50:58;;;;;;;41.28;39.15;;;;;;;;;;5037047;28;20044;-56
2024/04/04 12:53:24;;;;;;;40.08;38.03;;;;;;;;;;5033980;28;20037;-56
2024/04/04 12:55:50;;;;;;;37.60;35.67;;;;;;;;;;5031613;28;20473;-57
2024/04/04 12:58:16;;;;;;;40.00;37.90;;;;;;;;;;5032480;28;20043;-56
2024/04/04 13:00:41;;;;;;;55.40;52.63;;;;;;;;;;5032476;28;20029;-57
2024/04/04 13:03:06;;;;;;;53.78;51.05;;;;;;;;;;5029465;28;20124;-57
2024/04/04 13:05:32;;;;;;;64.20;61.00;;;;;;;;;;5030364;28;20163;-57
2024/04/04 13:07:58;;;;;;;65.50;62.22;;;;;;;;;;5031655;28;20043;-57
2024/04/04 13:10:23;;;;;;;59.50;56.53;;;;;;;;;;5032958;28;20098;-56
2024/04/04 13:12:48;;;;;;;66.97;63.65;;;;;;;;;;5034206;28;20126;-56
2024/04/04 13:15:14;;;;;;;71.85;68.28;;;;;;;;;;5030503;28;20029;-57
2024/04/04 13:17:39;;;;;;;68.60;65.10;;;;;;;;;;5034317;28;20537;-57
2024/04/04 13:20:05;;;;;;;60.33;57.30;;;;;;;;;;5035668;28;20025;-57
2024/04/04 13:22:31;;;;;;;59.65;56.65;;;;;;;;;;5033063;28;20132;-57
2024/04/04 13:24:56;;;;;;;59.85;56.85;;;;;;;;;;5031133;28;20498;-56
2024/04/04 13:27:22;;;;;;;56.70;53.85;;;;;;;;;;5031565;28;20136;-58
2024/04/04 13:29:49;;;;;;;49.38;46.88;;;;;;;;;;5030728;28;20103;-55
2024/04/04 13:32:15;;;;;;;48.95;46.47;;;;;;;;;;5032195;28;20363;-57
2024/04/04 13:34:40;;;;;;;51.67;49.08;;;;;;;;;;5032985;28;20025;-56
2024/04/04 13:37:06;;;;;;;47.85;45.40;;;;;;;;;;5032891;28;20044;-56
2024/04/04 13:39:32;;;;;;;49.30;46.78;;;;;;;;;;5031354;28;20670;-58
2024/04/04 13:41:57;;;;;;;52.53;49.88;;;;;;;;;;5034938;28;20044;-58
2024/04/04 13:44:23;;;;;;;53.65;50.95;;;;;;;;;;5031305;28;20041;-57
2024/04/04 13:46:48;;;;;;;52.38;49.70;;;;;;;;;;5030842;28;20044;-54
2024/04/04 13:49:14;;;;;;;48.33;45.88;;;;;;;;;;5030977;28;20148;-55
2024/04/04 13:51:39;;;;;;;54.00;51.28;;;;;;;;;;5031653;28;20072;-57
2024/04/04 13:54:06;;;;;;;51.00;48.40;;;;;;;;;;5030788;28;20065;-55
2024/04/04 13:56:31;;;;;;;55.40;52.63;;;;;;;;;;5032438;28;20064;-55
2024/04/04 13:58:56;;;;;;;50.20;47.67;;;;;;;;;;5030606;28;20046;-54
2024/04/04 14:01:22;;;;;;;55.38;52.60;;;;;;;;;;5032498;28;20025;-51
2024/04/04 14:03:47;;;;;;;46.30;43.95;;;;;;;;;;5035253;28;20032;-54
2024/04/04 14:06:12;;;;;;;49.45;46.95;;;;;;;;;;5033605;28;20029;-55
2024/04/04 14:08:38;;;;;;;51.63;49.00;;;;;;;;;;5032700;28;20043;-56
2024/04/04 14:11:03;;;;;;;56.80;53.95;;;;;;;;;;5032035;28;20040;-55
2024/04/04 14:13:29;;;;;;;59.13;56.17;;;;;;;;;;5030453;28;20041;-55